Time;durP1;ratioP1;P1;durP2;ratioP2;P2;SDS_P1;SDS_P2;PMS_P1;PMS_P2;Temp;Humidity;BMP_temperature;BMP_pressure;BME280_temperature;BME280_humidity;BME280_pressure;Samples;Min_cycle;Max_cycle;Signal;HPM_P1;HPM_P2
2023/03/05 00:01:55;;;;;;;64.85;35.72;;;205.50;2252.80;;;;;;5074222;28;20050;-78
2023/03/05 00:04:22;;;;;;;66.13;36.40;;;205.40;2252.80;;;;;;5075553;28;20435;-78
2023/03/05 00:06:48;;;;;;;69.47;38.65;;;205.30;2252.80;;;;;;5074201;28;20024;-77
2023/03/05 00:09:14;;;;;;;70.13;38.53;;;205.30;2252.80;;;;;;5075247;28;20016;-76
2023/03/05 00:11:39;;;;;;;69.13;37.33;;;205.30;2252.80;;;;;;5076268;28;20027;-78
2023/03/05 00:14:05;;;;;;;;;;;205.40;2252.80;;;;;;5073952;28;20554;-77
2023/03/05 00:16:31;;;;;;;73.60;39.20;;;205.40;2252.80;;;;;;5073846;28;20425;-77
2023/03/05 00:18:59;;;;;;;77.50;41.05;;;205.40;2252.80;;;;;;5073945;28;20037;-77
2023/03/05 00:21:27;;;;;;;88.22;47.25;;;205.40;2252.80;;;;;;5075137;28;20028;-78
2023/03/05 00:23:54;;;;;;;83.65;41.70;;;205.40;2252.80;;;;;;5073919;28;20021;-77
2023/03/05 00:26:23;;;;;;;83.07;43.25;;;230.50;2252.80;;;;;;5073885;28;20071;-77
2023/03/05 00:28:50;;;;;;;75.38;41.83;;;205.40;2252.80;;;;;;5073259;28;20547;-77
2023/03/05 00:31:21;;;;;;;69.30;38.70;;;205.50;2252.80;;;;;;5074810;28;20028;-77
2023/03/05 00:33:52;;;;;;;61.60;33.28;;;205.40;2252.80;;;;;;5074052;28;20033;-78
2023/03/05 00:36:18;;;;;;;56.78;29.90;;;205.30;2252.80;;;;;;5073679;28;20054;-78
2023/03/05 00:38:44;;;;;;;53.20;27.73;;;205.10;2252.80;;;;;;5074191;28;20040;-78
2023/03/05 00:41:09;;;;;;;47.15;27.30;;;205.00;2252.80;;;;;;5076638;28;20017;-78
2023/03/05 00:43:35;;;;;;;;;;;205.10;2252.80;;;;;;5073824;28;20028;-78
2023/03/05 00:46:01;;;;;;;49.15;25.92;;;205.10;2252.80;;;;;;5073634;28;19920;-77
2023/03/05 00:48:26;;;;;;;;;;;205.10;2252.80;;;;;;5075154;28;20500;-77
2023/03/05 00:50:52;;;;;;;45.75;24.73;;;205.10;2252.80;;;;;;5076763;28;20368;-77
2023/03/05 00:53:18;;;;;;;;;;;205.10;2252.80;;;;;;5088109;28;20050;-78
2023/03/05 00:55:44;;;;;;;49.05;25.02;;;205.10;2252.80;;;;;;5080782;28;19905;-77
2023/03/05 00:58:09;;;;;;;;;;;205.00;2252.80;;;;;;5068267;28;20024;-77
2023/03/05 01:00:35;;;;;;;58.35;25.02;;;204.80;2252.80;;;;;;5073433;28;20390;-77
2023/03/05 01:03:01;;;;;;;46.45;26.42;;;180.10;2252.80;;;;;;5072774;28;20492;-77
2023/03/05 01:05:27;;;;;;;;;;;180.00;2252.80;;;;;;5068521;28;20101;-77
2023/03/05 01:07:54;;;;;;;55.65;26.10;;;179.90;2252.80;;;;;;5074774;28;19906;-77
2023/03/05 01:10:20;;;;;;;51.60;27.55;;;179.70;2252.80;;;;;;5073002;28;20033;-78
2023/03/05 01:12:46;;;;;;;48.90;26.55;;;180.00;2252.80;;;;;;5073117;28;20037;-77
2023/03/05 01:15:12;;;;;;;;;;;179.50;2252.80;;;;;;5073349;28;20050;-77
2023/03/05 01:17:38;;;;;;;51.08;26.30;;;179.50;2252.80;;;;;;5071972;28;19905;-78
2023/03/05 01:20:04;;;;;;;;;;;179.60;2252.80;;;;;;5073023;28;20037;-77
2023/03/05 01:22:29;;;;;;;45.22;24.15;;;179.70;2252.80;;;;;;5073150;28;20425;-77
2023/03/05 01:24:55;;;;;;;;;;;179.60;2252.80;;;;;;5073009;28;20017;-77
2023/03/05 01:27:21;;;;;;;45.15;23.55;;;179.50;2252.80;;;;;;5072606;28;19908;-77
2023/03/05 01:29:46;;;;;;;;;;;179.50;2252.80;;;;;;5073064;28;20494;-77
2023/03/05 01:32:12;;;;;;;47.97;24.20;;;179.30;2252.80;;;;;;5072243;28;20280;-77
2023/03/05 01:34:38;;;;;;;;;;;179.30;2252.80;;;;;;5074659;28;20067;-77
2023/03/05 01:37:03;;;;;;;45.47;23.38;;;179.30;2252.80;;;;;;5077703;28;20383;-77
2023/03/05 01:39:30;;;;;;;38.53;22.13;;;179.30;2252.80;;;;;;5071770;28;20036;-77
2023/03/05 01:41:55;;;;;;;42.55;22.20;;;179.30;2252.80;;;;;;5070587;28;20035;-77
2023/03/05 01:44:23;;;;;;;;;;;179.30;2252.80;;;;;;5071887;28;20040;-78
2023/03/05 01:46:48;;;;;;;32.15;16.33;;;179.30;2252.80;;;;;;5073501;28;19911;-77
2023/03/05 01:49:17;;;;;;;;;;;179.20;2252.80;;;;;;5072427;28;20024;-78
2023/03/05 01:51:58;;;;;;;37.97;19.98;;;179.30;2252.80;;;;;;5073507;28;19912;-77
2023/03/05 01:54:30;;;;;;;36.75;18.95;;;179.20;2252.80;;;;;;5084765;28;20044;-78
2023/03/05 01:56:59;;;;;;;34.92;19.85;;;179.20;2252.80;;;;;;5082066;28;20056;-77
2023/03/05 01:59:26;;;;;;;58.22;30.15;;;179.30;2252.80;;;;;;5073031;28;20051;-77
2023/03/05 02:01:55;;;;;;;70.78;32.33;;;179.40;2252.80;;;;;;5071762;28;20032;-78
2023/03/05 02:04:26;;;;;;;44.95;21.38;;;179.40;2252.80;;;;;;5073070;28;20032;-78
2023/03/05 02:06:52;;;;;;;37.30;18.67;;;154.10;2252.80;;;;;;5079296;28;20029;-77
2023/03/05 02:09:22;;;;;;;;;;;154.20;2252.80;;;;;;5074393;28;20534;-78
2023/03/05 02:11:47;;;;;;;35.40;18.90;;;154.10;2252.80;;;;;;5072805;28;19911;-77
2023/03/05 02:14:13;;;;;;;;;;;153.70;2252.80;;;;;;5062211;28;20401;-78
2023/03/05 02:16:41;;;;;;;35.63;16.85;;;153.80;2252.80;;;;;;5052283;28;19908;-78
2023/03/05 02:19:10;;;;;;;39.42;18.05;;;153.90;2252.80;;;;;;5061232;28;20029;-77
2023/03/05 02:21:45;;;;;;;33.85;17.60;;;153.70;2252.80;;;;;;5089355;28;20020;-78
2023/03/05 02:24:18;;;;;;;31.60;14.80;;;153.60;2252.80;;;;;;5072425;28;20056;-77
2023/03/05 02:26:46;;;;;;;34.92;17.10;;;153.60;2252.80;;;;;;5080032;28;20078;-78
2023/03/05 02:29:18;;;;;;;35.45;17.20;;;128.70;2252.80;;;;;;5089040;28;20032;-78
2023/03/05 02:31:44;;;;;;;31.60;15.75;;;128.80;2252.80;;;;;;5072223;28;20053;-77
2023/03/05 02:34:09;;;;;;;;;;;128.80;2252.80;;;;;;5089195;28;20028;-78
2023/03/05 02:36:35;;;;;;;33.60;16.40;;;153.70;2252.80;;;;;;5072230;28;19904;-77
2023/03/05 02:39:01;;;;;;;;;;;153.60;2252.80;;;;;;5072591;28;20044;-77
2023/03/05 02:41:27;;;;;;;30.35;15.30;;;153.80;2252.80;;;;;;5073482;28;19952;-78
2023/03/05 02:43:52;;;;;;;;;;;153.90;2252.80;;;;;;5072340;28;20461;-77
2023/03/05 02:46:18;;;;;;;35.72;16.70;;;153.80;2252.80;;;;;;5089081;28;20372;-78
2023/03/05 02:48:44;;;;;;;;;;;153.90;2252.80;;;;;;5088912;28;20413;-77
2023/03/05 02:51:09;;;;;;;34.55;15.27;;;153.80;2252.80;;;;;;5072015;28;19911;-77
2023/03/05 02:53:35;;;;;;;;;;;153.90;2252.80;;;;;;5072671;28;20039;-78
2023/03/05 02:56:01;;;;;;;23.63;12.48;;;154.00;2252.80;;;;;;5088882;28;20415;-77
2023/03/05 02:58:26;;;;;;;;;;;153.90;2252.80;;;;;;5088617;28;20093;-77
2023/03/05 03:00:52;;;;;;;21.10;11.80;;;153.90;2252.80;;;;;;5071997;28;19912;-77
2023/03/05 03:03:18;;;;;;;;;;;153.80;2252.80;;;;;;5071885;28;20389;-77
2023/03/05 03:05:43;;;;;;;26.25;12.48;;;153.80;2252.80;;;;;;5088785;28;19966;-77
2023/03/05 03:08:09;;;;;;;;;;;153.70;2252.80;;;;;;5089170;28;20388;-77
2023/03/05 03:10:35;;;;;;;25.42;13.18;;;153.70;2252.80;;;;;;5079856;28;19944;-77
2023/03/05 03:13:01;;;;;;;24.27;12.65;;;153.60;2252.80;;;;;;5088180;28;20506;-77
2023/03/05 03:15:27;;;;;;;22.98;11.57;;;153.70;2252.80;;;;;;5073075;28;20020;-77
2023/03/05 03:17:53;;;;;;;;;;;153.70;2252.80;;;;;;5070745;28;20142;-78
2023/03/05 03:20:19;;;;;;;26.17;11.30;;;153.80;2252.80;;;;;;5071543;28;19924;-78
2023/03/05 03:22:45;;;;;;;;;;;153.60;2252.80;;;;;;5073414;28;20023;-78
2023/03/05 03:25:20;;;;;;;24.60;10.55;;;153.60;2252.80;;;;;;5071720;28;19926;-77
2023/03/05 03:27:46;;;;;;;18.52;10.40;;;153.60;2252.80;;;;;;5085914;28;20476;-78
2023/03/05 03:30:12;;;;;;;;;;;153.60;2252.80;;;;;;5088815;28;20035;-78
2023/03/05 03:32:38;;;;;;;17.67;9.40;;;153.60;2252.80;;;;;;5071516;28;19916;-78
2023/03/05 03:35:04;;;;;;;;;;;128.90;2252.80;;;;;;5072144;28;20396;-78
2023/03/05 03:37:29;;;;;;;22.88;10.25;;;128.90;2252.80;;;;;;5071560;28;19904;-77
2023/03/05 03:39:55;;;;;;;;;;;153.60;2252.80;;;;;;5088895;28;20480;-77
2023/03/05 03:42:21;;;;;;;20.95;10.10;;;128.90;2252.80;;;;;;5088485;28;20006;-78
2023/03/05 03:44:47;;;;;;;20.40;9.95;;;128.90;2252.80;;;;;;5088156;28;20021;-77
2023/03/05 03:47:13;;;;;;;17.58;10.88;;;128.90;2252.80;;;;;;5075072;28;20016;-77
2023/03/05 03:49:39;;;;;;;;;;;128.80;2252.80;;;;;;5088940;28;20036;-77
2023/03/05 03:52:05;;;;;;;18.15;9.82;;;128.90;2252.80;;;;;;5071651;28;19904;-77
2023/03/05 03:54:31;;;;;;;20.27;10.35;;;128.80;2252.80;;;;;;5071522;28;20032;-77
2023/03/05 03:56:57;;;;;;;;;;;128.80;2252.80;;;;;;5071841;28;20020;-77
2023/03/05 03:59:22;;;;;;;20.75;10.57;;;128.90;2252.80;;;;;;5088062;28;19969;-77
2023/03/05 04:01:48;;;;;;;;;;;128.80;2252.80;;;;;;5071589;28;20023;-76
2023/03/05 04:04:14;;;;;;;19.60;9.60;;;128.80;2252.80;;;;;;5088813;28;20377;-77
2023/03/05 04:06:39;;;;;;;;;;;128.80;2252.80;;;;;;5075361;28;20107;-77
2023/03/05 04:09:07;;;;;;;19.25;9.70;;;128.80;2252.80;;;;;;5075651;28;19908;-76
2023/03/05 04:11:33;;;;;;;20.20;10.48;;;128.70;2252.80;;;;;;5088210;28;20020;-79
2023/03/05 04:13:59;;;;;;;21.55;11.80;;;128.80;2252.80;;;;;;5075865;28;20029;-76
2023/03/05 04:16:25;;;;;;;;;;;128.80;2252.80;;;;;;5075001;28;20063;-77
2023/03/05 04:18:50;;;;;;;24.58;9.93;;;128.80;2252.80;;;;;;5074562;28;20011;-76
2023/03/05 04:21:16;;;;;;;;;;;128.60;2252.80;;;;;;5092092;28;20017;-77
2023/03/05 04:23:42;;;;;;;17.08;8.65;;;128.70;2252.80;;;;;;5091254;28;19950;-77
2023/03/05 04:26:07;;;;;;;;;;;128.50;2252.80;;;;;;5091632;28;20118;-77
2023/03/05 04:28:33;;;;;;;21.25;10.48;;;128.50;2252.80;;;;;;5074311;28;19905;-77
2023/03/05 04:30:59;;;;;;;;;;;128.50;2252.80;;;;;;5091756;28;20024;-78
2023/03/05 04:33:25;;;;;;;18.73;9.57;;;128.60;2252.80;;;;;;5074135;28;19917;-77
2023/03/05 04:35:50;;;;;;;;;;;128.60;2252.80;;;;;;5076028;28;20016;-77
2023/03/05 04:38:16;;;;;;;21.30;10.23;;;128.70;2252.80;;;;;;5074390;28;19904;-77
2023/03/05 04:40:43;;;;;;;;;;;128.60;2252.80;;;;;;5088511;28;20082;-77
2023/03/05 04:43:09;;;;;;;15.48;7.70;;;128.60;2252.80;;;;;;5075689;28;19948;-77
2023/03/05 04:45:35;;;;;;;;;;;128.60;2252.80;;;;;;5073658;28;20511;-77
2023/03/05 04:48:01;;;;;;;21.58;9.98;;;128.70;2252.80;;;;;;5075399;28;19905;-77
2023/03/05 04:50:27;;;;;;;;;;;128.50;2252.80;;;;;;5074486;28;20376;-77
2023/03/05 04:52:53;;;;;;;20.35;9.70;;;128.50;2252.80;;;;;;5075447;28;19912;-77
2023/03/05 04:55:18;;;;;;;;;;;128.30;2252.80;;;;;;5090634;28;20116;-77
2023/03/05 04:57:44;;;;;;;20.15;9.98;;;128.20;2252.80;;;;;;5075149;28;19943;-77
2023/03/05 05:00:14;;;;;;;;;;;128.10;2252.80;;;;;;5074197;28;20072;-77
2023/03/05 05:02:45;;;;;;;17.20;9.75;;;128.00;2252.80;;;;;;5090752;28;19930;-77
2023/03/05 05:05:14;;;;;;;20.40;9.63;;;103.30;2227.20;;;;;;5072682;28;20024;-77
2023/03/05 05:07:40;;;;;;;17.85;10.15;;;103.30;2227.20;;;;;;5074706;28;20368;-77
2023/03/05 05:10:06;;;;;;;;;;;103.30;2227.20;;;;;;5073502;28;20469;-77
2023/03/05 05:12:34;;;;;;;15.60;8.25;;;103.30;2227.20;;;;;;5090086;28;19978;-77
2023/03/05 05:15:00;;;;;;;21.25;10.75;;;103.20;2227.20;;;;;;5073001;28;20111;-78
2023/03/05 05:17:29;;;;;;;18.92;9.98;;;103.20;2227.20;;;;;;5078007;28;20488;-77
2023/03/05 05:19:56;;;;;;;18.33;10.55;;;103.20;2227.20;;;;;;5074441;28;20040;-77
2023/03/05 05:22:22;;;;;;;18.35;9.88;;;103.00;2227.20;;;;;;5074567;28;20020;-77
2023/03/05 05:24:47;;;;;;;20.63;10.95;;;103.30;2227.20;;;;;;5073571;28;20028;-77
2023/03/05 05:27:13;;;;;;;;;;;103.30;2227.20;;;;;;5074375;28;20035;-77
2023/03/05 05:29:39;;;;;;;19.65;9.68;;;103.30;2227.20;;;;;;5090023;28;19905;-77
2023/03/05 05:32:04;;;;;;;;;;;103.30;2227.20;;;;;;5073421;28;20060;-77
2023/03/05 05:34:30;;;;;;;19.55;10.38;;;103.30;2227.20;;;;;;5089868;28;20314;-75
2023/03/05 05:36:56;;;;;;;;;;;103.20;2227.20;;;;;;5074564;28;20024;-77
2023/03/05 05:39:21;;;;;;;18.65;9.93;;;103.20;2227.20;;;;;;5089864;28;20287;-77
2023/03/05 05:41:50;;;;;;;;;;;103.30;2227.20;;;;;;5072830;28;20060;-77
2023/03/05 05:44:16;;;;;;;17.83;10.45;;;128.00;2252.80;;;;;;5073894;28;20319;-77
2023/03/05 05:46:41;;;;;;;;;;;128.00;2252.80;;;;;;5074452;28;20028;-77
2023/03/05 05:49:07;;;;;;;19.45;9.70;;;128.10;2252.80;;;;;;5074291;28;19912;-78
2023/03/05 05:51:33;;;;;;;;;;;128.20;2252.80;;;;;;5090186;28;20024;-77
2023/03/05 05:53:58;;;;;;;20.05;10.68;;;128.20;2252.80;;;;;;5072452;28;19912;-77
2023/03/05 05:56:24;;;;;;;;;;;128.10;2252.80;;;;;;5074526;28;20029;-77
2023/03/05 05:58:50;;;;;;;19.45;10.45;;;128.20;2252.80;;;;;;5073732;28;20365;-77
2023/03/05 06:01:17;;;;;;;;;;;128.20;2252.80;;;;;;5072947;28;20017;-77
2023/03/05 06:03:42;;;;;;;12.43;7.38;;;128.20;2252.80;;;;;;5073937;28;19912;-77
2023/03/05 06:06:12;;;;;;;;;;;128.40;2252.80;;;;;;5072720;28;20032;-77
2023/03/05 06:08:38;;;;;;;19.20;10.20;;;128.40;2252.80;;;;;;5073819;28;19908;-77
2023/03/05 06:11:04;;;;;;;;;;;128.50;2252.80;;;;;;5089558;28;20102;-77
2023/03/05 06:13:30;;;;;;;18.98;10.40;;;128.50;2252.80;;;;;;5072454;28;19955;-77
2023/03/05 06:15:56;;;;;;;;;;;128.60;2252.80;;;;;;5073729;28;20052;-77
2023/03/05 06:18:22;;;;;;;25.73;11.50;;;128.50;2252.80;;;;;;5073692;28;19904;-77
2023/03/05 06:20:58;;;;;;;;;;;128.40;2252.80;;;;;;5073709;28;20020;-76
2023/03/05 06:23:25;;;;;;;22.98;12.00;;;128.60;2252.80;;;;;;5073633;28;19904;-77
2023/03/05 06:25:51;;;;;;;21.85;11.88;;;128.50;2252.80;;;;;;5069956;28;20028;-77
2023/03/05 06:28:17;;;;;;;38.33;16.83;;;128.70;2252.80;;;;;;5062245;28;20045;-77
2023/03/05 06:30:43;;;;;;;;;;;128.80;2252.80;;;;;;5075537;28;20472;-77
2023/03/05 06:33:09;;;;;;;26.05;11.35;;;128.80;2252.80;;;;;;5086014;28;19920;-77
2023/03/05 06:35:36;;;;;;;;;;;128.90;2252.80;;;;;;5069310;28;20063;-78
2023/03/05 06:38:02;;;;;;;;;;;128.60;2252.80;;;;;;5087129;28;19904;-77
2023/03/05 06:40:27;;;;;;;20.67;10.77;;;128.90;2252.80;;;;;;5070970;28;19989;-76
2023/03/05 06:42:53;;;;;;;;;;;153.60;2252.80;;;;;;5072079;28;20032;-77
2023/03/05 06:45:19;;;;;;;23.27;10.60;;;153.60;2252.80;;;;;;5073904;28;19904;-77
2023/03/05 06:47:44;;;;;;;;;;;153.60;2252.80;;;;;;5070747;28;20016;-77
2023/03/05 06:50:10;;;;;;;26.55;12.45;;;153.70;2252.80;;;;;;5071654;28;19911;-76
2023/03/05 06:52:39;;;;;;;24.13;11.00;;;153.70;2252.80;;;;;;5071277;28;20111;-77
2023/03/05 06:55:05;;;;;;;20.48;11.23;;;153.90;2252.80;;;;;;5064078;28;20023;-76
2023/03/05 06:57:31;;;;;;;19.77;10.63;;;153.90;2252.80;;;;;;5088070;28;20111;-77
2023/03/05 06:59:56;;;;;;;;;;;153.90;2252.80;;;;;;5075067;28;20127;-76
2023/03/05 07:02:22;;;;;;;19.45;9.43;;;154.10;2252.80;;;;;;5071245;28;19905;-75
2023/03/05 07:04:47;;;;;;;;;;;154.10;2252.80;;;;;;5073237;28;20035;-78
2023/03/05 07:07:13;;;;;;;20.42;10.07;;;154.10;2252.80;;;;;;5071023;28;19911;-83
2023/03/05 07:09:41;;;;;;;;;;;154.20;2252.80;;;;;;5072163;28;20029;-78
2023/03/05 07:12:10;;;;;;;18.30;9.88;;;154.20;2252.80;;;;;;5071148;28;20380;-77
2023/03/05 07:14:36;;;;;;;23.05;11.02;;;154.20;2252.80;;;;;;5071317;28;20055;-77
2023/03/05 07:17:03;;;;;;;18.23;10.07;;;154.40;2252.80;;;;;;5071036;28;20090;-77
2023/03/05 07:19:29;;;;;;;20.45;10.85;;;179.30;2252.80;;;;;;5070536;28;20493;-74
2023/03/05 07:21:54;;;;;;;;;;;179.40;2252.80;;;;;;5071175;28;20090;-75
2023/03/05 07:24:21;;;;;;;21.65;11.30;;;179.60;2252.80;;;;;;5071972;28;19908;-75
2023/03/05 07:26:47;;;;;;;23.13;10.32;;;179.70;2252.80;;;;;;5087683;28;20472;-76
2023/03/05 07:29:12;;;;;;;;;;;179.80;2252.80;;;;;;5072445;28;20091;-75
2023/03/05 07:31:38;;;;;;;24.63;11.73;;;179.90;2252.80;;;;;;5060684;28;19917;-76
2023/03/05 07:34:05;;;;;;;;;;;180.00;2252.80;;;;;;5071211;28;20056;-75
2023/03/05 07:36:33;;;;;;;17.67;8.60;;;179.80;2252.80;;;;;;5069141;28;19905;-75
2023/03/05 07:38:59;;;;;;;21.85;11.27;;;179.70;2252.80;;;;;;5072446;28;20150;-76
2023/03/05 07:41:25;;;;;;;;;;;179.80;2252.80;;;;;;5076796;28;20034;-74
2023/03/05 07:43:53;;;;;;;20.75;11.75;;;179.90;2252.80;;;;;;5072298;28;19919;-75
2023/03/05 07:46:23;;;;;;;22.27;11.55;;;180.00;2252.80;;;;;;5073236;28;20067;-75
2023/03/05 07:48:49;;;;;;;26.20;13.80;;;204.80;2252.80;;;;;;5068523;28;20128;-75
2023/03/05 07:51:17;;;;;;;30.23;14.57;;;180.10;2252.80;;;;;;5074328;28;20024;-75
2023/03/05 07:53:45;;;;;;;24.60;12.40;;;180.00;2252.80;;;;;;5075299;28;20016;-76
2023/03/05 07:56:11;;;;;;;24.02;10.75;;;180.00;2252.80;;;;;;5074292;28;20043;-75
2023/03/05 07:58:36;;;;;;;;;;;180.00;2252.80;;;;;;5087337;28;20464;-76
2023/03/05 08:01:02;;;;;;;19.45;10.50;;;180.00;2252.80;;;;;;5074155;28;19995;-76
2023/03/05 08:03:28;;;;;;;;;;;180.00;2252.80;;;;;;5075699;28;20061;-76
2023/03/05 08:05:54;;;;;;;22.70;10.75;;;204.80;2252.80;;;;;;5073933;28;19904;-75
2023/03/05 08:08:19;;;;;;;;;;;180.00;2252.80;;;;;;5074803;28;20028;-76
2023/03/05 08:10:45;;;;;;;21.73;10.80;;;180.00;2252.80;;;;;;5075136;28;19904;-75
2023/03/05 08:13:10;;;;;;;;;;;180.10;2252.80;;;;;;5073994;28;20025;-81
2023/03/05 08:15:37;;;;;;;22.05;12.43;;;180.10;2252.80;;;;;;5074078;28;19949;-76
2023/03/05 08:18:03;;;;;;;20.25;11.10;;;204.80;2252.80;;;;;;5082826;28;20097;-75
2023/03/05 08:20:29;;;;;;;;;;;204.80;2252.80;;;;;;5066578;28;20072;-75
2023/03/05 08:22:54;;;;;;;19.40;11.00;;;204.90;2252.80;;;;;;5073578;28;19911;-76
2023/03/05 08:25:20;;;;;;;;;;;205.20;2252.80;;;;;;5073845;28;20091;-75
2023/03/05 08:27:47;;;;;;;20.73;11.63;;;205.20;2252.80;;;;;;5073581;28;20375;-76
2023/03/05 08:30:17;;;;;;;23.48;12.00;;;205.60;2252.80;;;;;;5073707;28;20473;-75
2023/03/05 08:32:43;;;;;;;21.10;11.30;;;205.20;2252.80;;;;;;5074503;28;20076;-75
2023/03/05 08:35:08;;;;;;;;;;;205.30;2252.80;;;;;;5075298;28;20032;-76
2023/03/05 08:37:35;;;;;;;18.63;10.93;;;205.30;2252.80;;;;;;5075136;28;19911;-76
2023/03/05 08:40:00;;;;;;;20.85;11.63;;;205.40;2252.80;;;;;;5074497;28;20028;-76
2023/03/05 08:42:26;;;;;;;;;;;205.40;2252.80;;;;;;5075614;28;20028;-75
2023/03/05 08:44:52;;;;;;;22.60;10.93;;;205.50;2252.80;;;;;;5075937;28;19949;-76
2023/03/05 08:47:18;;;;;;;;;;;205.40;2252.80;;;;;;5073674;28;20043;-76
2023/03/05 08:49:43;;;;;;;21.15;11.05;;;205.50;2252.80;;;;;;5066747;28;19905;-77
2023/03/05 08:52:09;;;;;;;;;;;205.60;2252.80;;;;;;5066779;28;20025;-77
2023/03/05 08:54:36;;;;;;;17.77;10.15;;;205.50;2252.80;;;;;;5066852;28;20352;-74
2023/03/05 08:57:02;;;;;;;22.23;11.15;;;230.40;2252.80;;;;;;5080510;28;20484;-76
2023/03/05 08:59:27;;;;;;;;;;;230.40;2252.80;;;;;;5073543;28;20036;-76
2023/03/05 09:01:53;;;;;;;21.52;11.73;;;230.40;2252.80;;;;;;5076340;28;19908;-79
2023/03/05 09:04:19;;;;;;;25.77;12.27;;;205.70;2252.80;;;;;;5073701;28;20082;-77
2023/03/05 09:06:44;;;;;;;;;;;230.50;2252.80;;;;;;5072960;28;20059;-78
2023/03/05 09:09:11;;;;;;;23.42;11.48;;;230.60;2252.80;;;;;;5061177;28;19912;-78
2023/03/05 09:11:36;;;;;;;24.08;10.57;;;230.60;2252.80;;;;;;5077516;28;20029;-77
2023/03/05 09:14:03;;;;;;;20.85;10.68;;;230.70;2252.80;;;;;;5083522;28;20036;-78
2023/03/05 09:16:29;;;;;;;15.13;9.27;;;230.70;2252.80;;;;;;5083301;28;20524;-76
2023/03/05 09:18:55;;;;;;;19.08;9.93;;;230.70;2201.60;;;;;;5073606;28;20108;-77
2023/03/05 09:21:21;;;;;;;29.20;13.15;;;230.70;2201.60;;;;;;5078547;28;20123;-77
2023/03/05 09:23:47;;;;;;;15.35;8.75;;;230.80;2252.80;;;;;;5072693;28;20434;-77
2023/03/05 09:26:14;;;;;;;;;;;230.90;2124.80;;;;;;5074596;28;20031;-77
2023/03/05 09:28:41;;;;;;;12.85;8.38;;;231.10;2201.60;;;;;;5072686;28;19923;-78
2023/03/05 09:31:08;;;;;;;16.45;8.88;;;230.90;2124.80;;;;;;5072982;28;20039;-74
2023/03/05 09:33:35;;;;;;;19.58;9.95;;;230.90;2176.00;;;;;;5073321;28;20497;-77
2023/03/05 09:36:01;;;;;;;14.30;8.25;;;230.80;2073.60;;;;;;5072285;28;20544;-78
2023/03/05 09:38:28;;;;;;;16.48;8.43;;;230.90;2048.00;;;;;;5073248;28;20035;-77
2023/03/05 09:41:06;;;;;;;14.57;8.77;;;231.10;2048.00;;;;;;5072752;28;20024;-79
2023/03/05 09:43:53;;;;;;;21.38;10.50;;;231.10;2073.60;;;;;;5077961;28;20097;-78
2023/03/05 09:46:31;;;;;;;16.02;8.00;;;231.20;2073.60;;;;;;5072467;28;20028;-81
2023/03/05 09:49:32;;;;;;;17.85;8.95;;;231.20;1996.80;;;;;;5077095;28;20063;-76
2023/03/05 09:52:19;;;;;;;21.00;10.52;;;256.00;1945.60;;;;;;5039506;28;20029;-78
2023/03/05 09:54:46;;;;;;;;;;;256.40;1945.60;;;;;;5037472;28;20060;-78
2023/03/05 09:57:19;;;;;;;21.55;8.98;;;256.70;1945.60;;;;;;5014632;28;19905;-77
2023/03/05 09:59:58;;;;;;;18.95;9.55;;;256.80;1868.80;;;;;;5031667;28;20053;-77
2023/03/05 10:02:31;;;;;;;19.95;10.45;;;256.80;1817.60;;;;;;5030645;28;20083;-78
2023/03/05 10:05:08;;;;;;;13.65;7.85;;;256.90;1766.40;;;;;;5037121;28;20026;-77
2023/03/05 10:07:38;;;;;;;16.77;7.93;;;256.70;1740.80;;;;;;5006782;28;20116;-82
2023/03/05 10:10:12;;;;;;;21.20;10.95;;;256.90;1715.20;;;;;;5021260;28;20092;-79
2023/03/05 10:12:41;;;;;;;14.63;7.55;;;281.90;1740.80;;;;;;5033123;28;20228;-78
2023/03/05 10:15:28;;;;;;;15.25;7.13;;;282.10;1740.80;;;;;;5038062;28;20022;-77
2023/03/05 10:18:10;;;;;;;18.80;8.55;;;282.20;1689.60;;;;;;5030266;28;20024;-78
2023/03/05 10:20:47;;;;;;;15.77;7.28;;;282.30;1664.00;;;;;;5019208;28;20448;-78
2023/03/05 10:23:24;;;;;;;22.33;10.73;;;307.20;1664.00;;;;;;5031178;28;20046;-77
2023/03/05 10:26:02;;;;;;;15.63;9.20;;;282.40;1664.00;;;;;;5050984;28;20044;-78
2023/03/05 10:28:27;;;;;;;19.70;9.73;;;307.20;1664.00;;;;;;5071629;28;20025;-77
2023/03/05 10:31:16;;;;;;;15.10;8.43;;;307.30;1664.00;;;;;;5072501;28;20056;-81
2023/03/05 10:33:48;;;;;;;20.10;10.30;;;307.30;1664.00;;;;;;5071491;28;20086;-76
2023/03/05 10:37:12;;;;;;;19.73;9.50;;;307.30;1664.00;;;;;;5071878;28;20048;-77
2023/03/05 10:39:52;;;;;;;20.92;9.60;;;307.30;1664.00;;;;;;4989011;28;20537;-79
2023/03/05 10:42:27;;;;;;;24.58;12.63;;;307.30;1664.00;;;;;;5008690;28;20491;-76
2023/03/05 10:45:04;;;;;;;24.65;13.05;;;307.20;1689.60;;;;;;5007066;28;20089;-76
2023/03/05 10:47:35;;;;;;;25.35;12.23;;;282.50;1664.00;;;;;;5006006;28;20158;-76
2023/03/05 10:50:01;;;;;;;25.90;11.98;;;307.30;1689.60;;;;;;5005933;28;20030;-76
2023/03/05 10:52:39;;;;;;;13.25;7.68;;;307.60;1664.00;;;;;;5002668;28;20041;-76
2023/03/05 10:55:17;;;;;;;15.57;7.88;;;307.80;1612.80;;;;;;4997481;28;20041;-76
2023/03/05 10:57:43;;;;;;;17.80;9.05;;;308.00;1587.20;;;;;;4991109;28;20125;-76
2023/03/05 11:00:26;;;;;;;21.30;12.68;;;332.80;1587.20;;;;;;5002974;28;20104;-76
2023/03/05 11:02:52;;;;;;;19.00;10.32;;;333.10;1587.20;;;;;;5003791;28;20458;-76
2023/03/05 11:05:47;;;;;;;16.02;10.05;;;333.20;1587.20;;;;;;4994752;28;20037;-76
2023/03/05 11:08:36;;;;;;;19.83;9.68;;;332.90;1587.20;;;;;;5005698;28;20065;-75
2023/03/05 11:11:15;;;;;;;25.77;12.63;;;307.40;1664.00;;;;;;5003535;28;20022;-76
2023/03/05 11:14:02;;;;;;;30.60;14.40;;;307.70;1638.40;;;;;;5000051;28;20034;-76
2023/03/05 11:16:31;;;;;;;18.58;10.25;;;308.00;1638.40;;;;;;5076103;28;20028;-76
2023/03/05 11:19:20;;;;;;;17.33;10.35;;;307.60;1638.40;;;;;;5075835;28;20385;-76
2023/03/05 11:22:04;;;;;;;17.73;9.93;;;307.70;1638.40;;;;;;5074913;28;20023;-75
2023/03/05 11:24:29;;;;;;;16.55;9.15;;;307.30;1689.60;;;;;;5073922;28;20035;-75
2023/03/05 11:26:56;;;;;;;12.18;8.40;;;282.50;1664.00;;;;;;5074353;28;20381;-77
2023/03/05 11:29:28;;;;;;;14.63;8.40;;;282.30;1664.00;;;;;;5075870;28;20024;-78
2023/03/05 11:31:54;;;;;;;16.00;8.52;;;307.80;1638.40;;;;;;5075128;28;20389;-76
2023/03/05 11:34:22;;;;;;;18.95;9.07;;;;;;;;;;5075083;28;20033;-76
2023/03/05 11:36:54;;;;;;;14.82;7.88;;;333.40;1587.20;;;;;;5074506;28;20021;-76
2023/03/05 11:39:22;;;;;;;13.40;8.75;;;333.40;1561.60;;;;;;5075850;28;20125;-75
2023/03/05 11:41:48;;;;;;;13.15;8.48;;;333.60;1536.00;;;;;;5074334;28;20025;-76
2023/03/05 11:44:21;;;;;;;13.68;7.90;;;333.30;1484.80;;;;;;5080197;28;20502;-76
2023/03/05 11:47:03;;;;;;;13.90;7.82;;;333.10;1510.40;;;;;;5075780;28;20024;-77
2023/03/05 11:49:30;;;;;;;15.90;8.18;;;333.70;1484.80;;;;;;5075379;28;20063;-75
2023/03/05 11:52:02;;;;;;;12.65;8.55;;;333.20;1459.20;;;;;;5075445;28;20092;-77
2023/03/05 11:54:45;;;;;;;13.88;6.63;;;333.20;1484.80;;;;;;5074970;28;20119;-76
2023/03/05 11:57:14;;;;;;;14.48;8.18;;;308.10;1510.40;;;;;;5075208;28;20051;-76
2023/03/05 11:59:40;;;;;;;11.43;6.82;;;332.90;1536.00;;;;;;5073273;28;20463;-76
2023/03/05 12:02:25;;;;;;;13.13;7.75;;;307.80;1510.40;;;;;;5075267;28;20512;-76
2023/03/05 12:04:51;;;;;;;15.52;8.05;;;332.90;1510.40;;;;;;5075169;28;20428;-79
2023/03/05 12:07:38;;;;;;;13.23;7.53;;;333.50;1484.80;;;;;;5074585;28;20028;-76
2023/03/05 12:10:05;;;;;;;13.00;7.93;;;358.40;1433.60;;;;;;5074024;28;20104;-76
2023/03/05 12:12:43;;;;;;;13.00;8.35;;;358.50;1408.00;;;;;;5074097;28;20029;-76
2023/03/05 12:15:17;;;;;;;10.63;6.60;;;333.40;1408.00;;;;;;5066409;28;20029;-76
2023/03/05 12:18:20;;;;;;;17.15;8.02;;;333.20;1433.60;;;;;;5074731;28;20473;-75
2023/03/05 12:21:25;;;;;;;20.90;9.82;;;332.90;1510.40;;;;;;5073055;28;20028;-76
2023/03/05 12:24:02;;;;;;;22.20;11.88;;;308.00;1510.40;;;;;;5073991;28;20388;-76
2023/03/05 12:26:57;;;;;;;14.32;7.70;;;307.90;1510.40;;;;;;5073984;28;20024;-76
2023/03/05 12:29:46;;;;;;;15.80;8.63;;;307.60;1536.00;;;;;;5073589;28;20012;-76
2023/03/05 12:32:33;;;;;;;16.13;8.63;;;307.30;1561.60;;;;;;5073013;28;20131;-77
2023/03/05 12:35:29;;;;;;;21.55;11.32;;;282.50;1536.00;;;;;;5088080;28;20091;-76